createdAt,value
2023-06-21T00:00:01.768Z,14.73
2023-06-21T00:02:29.607Z,11.50
2023-06-21T00:06:11.993Z,12.03
2023-06-21T00:08:39.726Z,10.07
2023-06-21T00:11:06.617Z,8.70
2023-06-21T00:13:33.527Z,7.70
2023-06-21T00:16:00.458Z,8.40
2023-06-21T00:18:27.454Z,8.33
2023-06-21T00:20:54.355Z,10.63
2023-06-21T00:23:21.217Z,8.63
2023-06-21T00:25:48.111Z,8.70
2023-06-21T00:28:15.074Z,11.43
2023-06-21T00:30:41.979Z,9.33
2023-06-21T00:33:08.931Z,9.30
2023-06-21T00:35:35.850Z,8.97
2023-06-21T00:38:02.714Z,9.40
2023-06-21T00:40:35.127Z,12.10
2023-06-21T00:43:05.004Z,9.67
2023-06-21T00:45:40.313Z,8.93
2023-06-21T00:48:08.428Z,11.53
2023-06-21T00:50:35.599Z,10.00
2023-06-21T00:53:02.570Z,10.87
2023-06-21T00:55:29.541Z,7.13
2023-06-21T00:57:58.375Z,9.53
2023-06-21T01:00:26.802Z,9.73
2023-06-21T01:03:00.261Z,9.87
2023-06-21T01:05:35.635Z,8.90
2023-06-21T01:08:36.172Z,8.43
2023-06-21T01:11:03.403Z,8.77
2023-06-21T01:13:46.235Z,6.50
2023-06-21T01:16:16.510Z,9.57
2023-06-21T01:18:47.660Z,9.40
2023-06-21T01:21:19.817Z,9.37
2023-06-21T01:24:14.952Z,7.87
2023-06-21T01:27:17.677Z,11.00
2023-06-21T01:29:48.932Z,9.63
2023-06-21T01:32:18.338Z,9.87
2023-06-21T01:34:46.286Z,13.37
2023-06-21T01:37:13.187Z,6.97
2023-06-21T01:39:40.153Z,8.43
2023-06-21T01:42:07.582Z,8.60
2023-06-21T01:44:34.981Z,8.17
2023-06-21T01:47:02.632Z,8.23
2023-06-21T01:49:31.693Z,11.07
2023-06-21T01:51:59.905Z,10.87
2023-06-21T01:54:28.359Z,9.23
2023-06-21T01:57:00.828Z,7.73
2023-06-21T01:59:30.154Z,9.77
2023-06-21T02:02:02.404Z,11.53
2023-06-21T02:04:31.410Z,10.17
2023-06-21T02:06:59.819Z,8.83
2023-06-21T02:09:27.301Z,7.70
2023-06-21T02:11:54.525Z,9.73
2023-06-21T02:14:21.855Z,10.20
2023-06-21T02:16:49.434Z,10.17
2023-06-21T02:19:16.373Z,9.87
2023-06-21T02:21:43.303Z,12.13
2023-06-21T02:24:10.248Z,8.63
2023-06-21T02:26:37.189Z,9.80
2023-06-21T02:29:04.065Z,8.70
2023-06-21T02:31:34.095Z,6.67
2023-06-21T02:34:01.318Z,7.67
2023-06-21T02:36:28.382Z,10.60
2023-06-21T02:38:56.608Z,11.83
2023-06-21T02:41:23.639Z,11.07
2023-06-21T02:43:50.814Z,10.90
2023-06-21T02:46:18.921Z,8.30
2023-06-21T02:48:45.832Z,10.80
2023-06-21T02:51:12.707Z,7.17
2023-06-21T02:53:39.635Z,12.40
2023-06-21T02:56:07.081Z,9.57
2023-06-21T02:58:34.248Z,12.10
2023-06-21T03:01:01.157Z,11.47
2023-06-21T03:03:28.960Z,14.23
2023-06-21T03:05:56.341Z,12.30
2023-06-21T03:08:23.270Z,9.60
2023-06-21T03:10:50.164Z,11.60
2023-06-21T03:13:17.084Z,9.10
2023-06-21T03:15:44.017Z,13.20
2023-06-21T03:18:11.049Z,12.80
2023-06-21T03:20:38.132Z,10.43
2023-06-21T03:23:05.084Z,14.70
2023-06-21T03:25:31.968Z,9.90
2023-06-21T03:28:00.572Z,8.83
2023-06-21T03:32:54.751Z,10.43
2023-06-21T03:35:21.826Z,10.23
2023-06-21T03:37:48.949Z,11.53
2023-06-21T03:40:15.914Z,12.63
2023-06-21T03:42:44.469Z,9.00
2023-06-21T03:45:12.137Z,9.00
2023-06-21T03:47:41.272Z,10.40
2023-06-21T03:50:09.952Z,10.23
2023-06-21T03:52:37.535Z,11.87
2023-06-21T03:55:06.053Z,12.60
2023-06-21T03:57:33.196Z,12.03
2023-06-21T04:00:00.226Z,8.33
2023-06-21T04:02:27.223Z,8.47
2023-06-21T04:04:54.141Z,8.37
2023-06-21T04:07:23.244Z,10.30
2023-06-21T04:09:50.750Z,11.20
2023-06-21T04:12:17.705Z,7.80
2023-06-21T04:14:44.610Z,9.07
2023-06-21T04:17:11.530Z,9.50
2023-06-21T04:19:38.430Z,10.07
2023-06-21T04:22:05.768Z,8.77
2023-06-21T04:24:32.860Z,8.93
2023-06-21T04:27:00.040Z,13.80
2023-06-21T04:29:27.456Z,10.57
2023-06-21T04:31:54.542Z,10.97
2023-06-21T04:34:21.574Z,11.47
2023-06-21T04:36:49.183Z,9.70
2023-06-21T04:39:19.265Z,12.17
2023-06-21T04:41:47.418Z,9.27
2023-06-21T04:44:18.473Z,7.60
2023-06-21T04:46:49.065Z,10.00
2023-06-21T04:49:17.031Z,8.20
2023-06-21T04:51:44.632Z,8.23
2023-06-21T04:54:11.632Z,7.37
2023-06-21T04:56:38.666Z,8.23
2023-06-21T04:59:05.633Z,10.77
2023-06-21T05:01:33.784Z,11.20
2023-06-21T05:04:00.832Z,12.10
2023-06-21T05:06:27.737Z,12.90
2023-06-21T05:08:54.790Z,11.67
2023-06-21T05:11:21.758Z,15.23
2023-06-21T05:13:48.668Z,12.63
2023-06-21T05:16:15.582Z,9.73
2023-06-21T05:18:43.460Z,14.73
2023-06-21T05:21:10.561Z,13.10
2023-06-21T05:23:37.463Z,11.53
2023-06-21T05:26:05.381Z,11.30
2023-06-21T05:28:32.462Z,13.97
2023-06-21T05:30:59.557Z,11.20
2023-06-21T05:33:26.449Z,15.17
2023-06-21T05:35:53.361Z,12.60
2023-06-21T05:38:20.262Z,12.20
2023-06-21T05:40:47.279Z,15.33
2023-06-21T05:43:14.176Z,14.57
2023-06-21T05:45:41.074Z,10.50
2023-06-21T05:48:08.027Z,13.30
2023-06-21T05:50:34.957Z,14.03
2023-06-21T05:53:01.892Z,11.70
2023-06-21T05:55:28.767Z,11.13
2023-06-21T05:57:55.731Z,13.70
2023-06-21T06:00:22.761Z,15.00
2023-06-21T06:02:49.721Z,11.10
2023-06-21T06:05:17.500Z,11.40
2023-06-21T06:07:44.501Z,10.10
2023-06-21T06:10:11.428Z,11.80
2023-06-21T06:12:38.464Z,12.70
2023-06-21T06:15:06.494Z,8.33
2023-06-21T06:17:33.397Z,10.73
2023-06-21T06:20:05.660Z,7.73
2023-06-21T06:22:36.668Z,12.80
2023-06-21T06:25:04.629Z,10.83
2023-06-21T06:27:31.536Z,13.90
2023-06-21T06:29:59.050Z,9.07
2023-06-21T06:32:28.414Z,8.50
2023-06-21T06:34:55.725Z,8.77
2023-06-21T06:37:30.610Z,9.87
2023-06-21T06:39:59.556Z,7.50
2023-06-21T06:42:26.543Z,7.50
2023-06-21T06:44:54.258Z,9.00
2023-06-21T06:47:21.328Z,9.10
2023-06-21T06:49:48.237Z,8.73
2023-06-21T06:52:15.134Z,10.05
2023-06-21T06:54:42.076Z,12.05
2023-06-21T06:57:15.855Z,10.18
2023-06-21T06:59:50.330Z,11.02
2023-06-21T07:02:17.462Z,8.52
2023-06-21T07:04:44.374Z,9.30
2023-06-21T07:07:11.321Z,9.50
2023-06-21T07:09:39.040Z,10.05
2023-06-21T07:12:06.860Z,11.65
2023-06-21T07:14:33.739Z,9.45
2023-06-21T07:17:00.742Z,11.80
2023-06-21T07:19:27.601Z,8.65
2023-06-21T07:21:54.508Z,12.15
2023-06-21T07:24:21.471Z,10.02
2023-06-21T07:26:48.476Z,12.52
2023-06-21T07:29:15.466Z,7.68
2023-06-21T07:31:42.384Z,10.00
2023-06-21T07:34:10.730Z,7.32
2023-06-21T07:36:39.967Z,14.23
2023-06-21T07:39:09.357Z,8.68
2023-06-21T07:41:36.488Z,8.48
2023-06-21T07:44:03.661Z,9.00
2023-06-21T07:46:30.717Z,10.52
2023-06-21T07:48:57.590Z,11.40
2023-06-21T07:51:24.495Z,9.70
2023-06-21T07:53:51.364Z,7.75
2023-06-21T07:56:18.360Z,9.82
2023-06-21T07:58:45.389Z,7.90
2023-06-21T08:01:13.480Z,8.32
2023-06-21T08:03:41.588Z,12.32
2023-06-21T08:06:08.660Z,12.93
2023-06-21T08:08:35.546Z,7.32
2023-06-21T08:11:02.516Z,11.32
2023-06-21T08:13:30.550Z,11.00
2023-06-21T08:15:57.532Z,15.73
2023-06-21T08:18:24.394Z,10.52
2023-06-21T08:20:51.290Z,7.95
2023-06-21T08:23:18.181Z,10.20
2023-06-21T08:25:46.866Z,12.38
2023-06-21T08:28:13.886Z,13.07
2023-06-21T08:30:40.754Z,10.07
2023-06-21T08:33:07.690Z,9.98
2023-06-21T08:35:34.659Z,8.57
2023-06-21T08:38:11.743Z,8.63
2023-06-21T08:40:48.419Z,9.05
2023-06-21T08:43:15.451Z,10.20
2023-06-21T08:45:42.956Z,12.02
2023-06-21T08:48:10.839Z,11.60
2023-06-21T08:50:39.242Z,7.50
2023-06-21T08:53:08.421Z,9.80
2023-06-21T08:55:37.300Z,10.18
2023-06-21T08:58:17.409Z,9.88
2023-06-21T09:00:52.771Z,10.43
2023-06-21T09:03:29.681Z,11.77
2023-06-21T09:06:04.466Z,7.85
2023-06-21T09:08:35.761Z,8.07
2023-06-21T09:11:03.760Z,9.02
2023-06-21T09:13:35.375Z,8.70
2023-06-21T09:16:04.195Z,9.57
2023-06-21T09:18:37.205Z,8.77
2023-06-21T09:21:05.814Z,12.75
2023-06-21T09:23:32.803Z,10.52
2023-06-21T09:25:59.782Z,9.00
2023-06-21T09:28:26.857Z,9.52
2023-06-21T09:30:53.790Z,10.90
2023-06-21T09:33:20.936Z,11.95
2023-06-21T09:35:47.983Z,12.88
2023-06-21T09:38:29.501Z,8.60
2023-06-21T09:40:56.821Z,8.02
2023-06-21T09:43:24.190Z,7.35
2023-06-21T09:46:13.125Z,8.98
2023-06-21T09:48:41.530Z,8.60
2023-06-21T09:51:12.009Z,12.90
2023-06-21T09:53:42.867Z,11.30
2023-06-21T09:56:10.387Z,9.60
2023-06-21T09:58:41.692Z,11.57
2023-06-21T10:01:09.171Z,11.63
2023-06-21T10:03:36.620Z,10.77
2023-06-21T10:06:04.619Z,9.88
2023-06-21T10:08:37.222Z,9.73
2023-06-21T10:11:04.824Z,7.65
2023-06-21T10:13:38.665Z,11.98
2023-06-21T10:16:06.240Z,7.88
2023-06-21T10:18:35.309Z,9.77
2023-06-21T10:21:04.975Z,11.98
2023-06-21T10:23:35.569Z,8.32
2023-06-21T10:26:06.415Z,10.15
2023-06-21T10:28:38.094Z,11.38
2023-06-21T10:31:05.718Z,8.02
2023-06-21T10:33:35.355Z,7.35
2023-06-21T10:36:04.444Z,8.25
2023-06-21T10:38:49.195Z,9.75
2023-06-21T10:41:16.731Z,8.88
2023-06-21T10:43:45.938Z,10.93
2023-06-21T10:46:13.800Z,26.35
2023-06-21T10:48:41.661Z,21.42
2023-06-21T10:51:11.354Z,19.85
2023-06-21T10:53:39.745Z,21.05
2023-06-21T10:56:06.838Z,19.57
2023-06-21T10:58:33.840Z,17.33
2023-06-21T11:01:01.701Z,19.57
2023-06-21T11:03:29.038Z,22.17
2023-06-21T11:06:40.011Z,19.23
2023-06-21T11:09:13.764Z,14.40
2023-06-21T11:11:53.743Z,14.57
2023-06-21T11:14:31.554Z,17.67
2023-06-21T11:17:16.292Z,13.57
2023-06-21T11:19:48.641Z,14.63
2023-06-21T11:22:18.357Z,15.07
2023-06-21T11:24:58.866Z,15.27
2023-06-21T11:27:26.842Z,11.73
2023-06-21T11:30:04.880Z,11.63
2023-06-21T11:32:31.903Z,12.53
2023-06-21T11:35:01.773Z,15.07
2023-06-21T11:37:46.086Z,15.93
2023-06-21T11:40:16.605Z,13.83
2023-06-21T11:42:46.999Z,12.37
2023-06-21T11:45:21.030Z,16.10
2023-06-21T11:48:09.787Z,12.13
2023-06-21T11:50:42.308Z,10.63
2023-06-21T11:53:31.577Z,16.50
2023-06-21T11:56:03.307Z,16.27
2023-06-21T11:58:30.562Z,13.43
2023-06-21T12:00:58.227Z,12.33
2023-06-21T12:03:28.769Z,14.47
2023-06-21T12:05:58.319Z,16.90
2023-06-21T12:08:28.876Z,13.40
2023-06-21T12:11:08.617Z,17.10
2023-06-21T12:13:37.131Z,14.30
2023-06-21T12:16:06.937Z,15.43
2023-06-21T12:18:37.384Z,10.83
2023-06-21T12:21:08.257Z,12.33
2023-06-21T12:23:35.322Z,12.17
2023-06-21T12:26:07.325Z,14.70
2023-06-21T12:28:35.729Z,12.90
2023-06-21T12:31:04.832Z,14.60
2023-06-21T12:33:37.222Z,12.10
2023-06-21T12:36:25.174Z,15.45
2023-06-21T12:39:04.321Z,10.88
2023-06-21T12:41:33.629Z,12.13
2023-06-21T12:44:27.140Z,10.80
2023-06-21T12:46:55.008Z,12.45
2023-06-21T12:49:21.970Z,9.98
2023-06-21T12:51:49.419Z,13.18
2023-06-21T12:54:20.966Z,11.50
2023-06-21T12:56:59.833Z,10.23
2023-06-21T12:59:28.090Z,13.40
2023-06-21T13:01:57.207Z,8.60
2023-06-21T13:04:24.485Z,12.60
2023-06-21T13:06:51.634Z,10.73
2023-06-21T13:09:18.759Z,11.20
2023-06-21T13:11:46.967Z,12.57
2023-06-21T13:14:13.948Z,10.57
2023-06-21T13:16:40.826Z,11.68
2023-06-21T13:19:08.464Z,11.50
2023-06-21T13:21:35.572Z,7.47
2023-06-21T13:24:04.008Z,9.25
2023-06-21T13:26:31.062Z,11.85
2023-06-21T13:28:58.050Z,9.70
2023-06-21T13:31:25.622Z,9.18
2023-06-21T13:33:54.430Z,8.07
2023-06-21T13:36:21.599Z,11.38
2023-06-21T13:38:48.491Z,10.32
2023-06-21T13:41:15.402Z,13.73
2023-06-21T13:43:42.376Z,9.18
2023-06-21T13:46:09.394Z,10.68
2023-06-21T13:48:36.465Z,9.25
2023-06-21T13:51:03.569Z,6.45
2023-06-21T13:53:30.527Z,9.75
2023-06-21T13:55:58.205Z,7.35
2023-06-21T13:58:26.837Z,8.95
2023-06-21T14:00:53.892Z,10.35
2023-06-21T14:03:20.956Z,12.75
2023-06-21T14:05:47.997Z,8.18
2023-06-21T14:08:14.877Z,6.10
2023-06-21T14:10:41.783Z,10.43
2023-06-21T14:13:08.679Z,8.90
2023-06-21T14:15:35.676Z,7.40
2023-06-21T14:18:04.555Z,7.28
2023-06-21T14:20:32.267Z,9.32
2023-06-21T14:22:59.724Z,7.63
2023-06-21T14:25:26.731Z,8.80
2023-06-21T14:27:53.669Z,9.73
2023-06-21T14:30:21.268Z,7.07
2023-06-21T14:32:48.639Z,9.38
2023-06-21T14:35:15.972Z,7.03
2023-06-21T14:37:45.052Z,10.25
2023-06-21T14:40:12.468Z,7.38
2023-06-21T14:42:39.570Z,8.25
2023-06-21T14:45:07.027Z,7.15
2023-06-21T14:47:33.983Z,6.72
2023-06-21T14:50:04.106Z,6.68
2023-06-21T14:52:32.634Z,6.70
2023-06-21T14:54:59.661Z,7.20
2023-06-21T14:57:26.577Z,5.22
2023-06-21T14:59:53.637Z,4.97
2023-06-21T15:02:20.672Z,7.47
2023-06-21T15:04:47.634Z,8.52
2023-06-21T15:07:19.130Z,8.18
2023-06-21T15:09:47.160Z,7.40
2023-06-21T15:12:14.387Z,6.88
2023-06-21T15:14:41.471Z,4.82
2023-06-21T15:17:08.549Z,7.75
2023-06-21T15:19:35.536Z,5.70
2023-06-21T15:22:02.615Z,6.25
2023-06-21T15:24:29.462Z,7.97
2023-06-21T15:26:56.361Z,5.93
2023-06-21T15:29:23.342Z,9.30
2023-06-21T15:31:50.249Z,8.55
2023-06-21T15:34:17.227Z,4.55
2023-06-21T15:36:45.014Z,7.72
2023-06-21T15:39:12.143Z,6.20
2023-06-21T15:41:39.557Z,5.63
2023-06-21T15:44:06.799Z,6.35
2023-06-21T15:46:34.401Z,5.97
2023-06-21T15:49:01.985Z,6.05
2023-06-21T15:51:29.179Z,6.55
2023-06-21T15:53:57.238Z,4.43
2023-06-21T15:56:26.114Z,5.53
2023-06-21T15:58:53.899Z,6.78
2023-06-21T16:01:22.089Z,10.00
2023-06-21T16:03:50.493Z,7.40
2023-06-21T16:06:19.712Z,7.20
2023-06-21T16:08:47.517Z,5.65
2023-06-21T16:11:15.268Z,6.05
2023-06-21T16:16:14.232Z,6.25
2023-06-21T16:18:41.519Z,6.50
2023-06-21T16:21:08.646Z,4.72
2023-06-21T16:23:35.654Z,5.78
2023-06-21T16:26:02.946Z,6.80
2023-06-21T16:28:29.971Z,8.55
2023-06-21T16:30:56.948Z,10.13
2023-06-21T16:33:23.856Z,5.63
2023-06-21T16:35:50.921Z,5.22
2023-06-21T16:38:19.791Z,5.97
2023-06-21T16:40:47.171Z,6.82
2023-06-21T16:43:14.860Z,5.00
2023-06-21T16:45:41.826Z,6.28
2023-06-21T16:48:08.887Z,5.32
2023-06-21T16:50:35.998Z,5.13
2023-06-21T16:53:03.266Z,6.13
2023-06-21T16:55:30.768Z,7.80
2023-06-21T16:57:58.116Z,7.95
2023-06-21T17:00:25.139Z,6.65
2023-06-21T17:02:54.457Z,8.00
2023-06-21T17:05:25.641Z,7.07
2023-06-21T17:07:53.293Z,5.82
2023-06-21T17:10:22.015Z,6.28
2023-06-21T17:12:49.325Z,4.78
2023-06-21T17:15:16.368Z,7.25
2023-06-21T17:17:44.622Z,6.30
2023-06-21T17:20:12.237Z,6.50
2023-06-21T17:22:39.335Z,7.28
2023-06-21T17:25:07.034Z,7.38
2023-06-21T17:27:34.026Z,7.22
2023-06-21T17:30:01.280Z,5.28
2023-06-21T17:32:28.353Z,6.95
2023-06-21T17:34:55.354Z,5.63
2023-06-21T17:37:22.414Z,6.03
2023-06-21T17:39:49.375Z,6.63
2023-06-21T17:42:16.491Z,6.85
2023-06-21T17:44:43.744Z,4.90
2023-06-21T17:47:11.665Z,9.18
2023-06-21T17:49:38.709Z,8.35
2023-06-21T17:52:06.203Z,6.00
2023-06-21T17:54:33.609Z,5.38
2023-06-21T17:57:00.768Z,5.97
2023-06-21T17:59:27.681Z,6.00
2023-06-21T18:01:55.609Z,6.55
2023-06-21T18:04:22.740Z,5.82
2023-06-21T18:06:49.856Z,5.70
2023-06-21T18:09:16.828Z,7.43
2023-06-21T18:11:44.567Z,4.22
2023-06-21T18:14:11.603Z,6.25
2023-06-21T18:16:40.730Z,6.43
2023-06-21T18:19:07.642Z,5.07
2023-06-21T18:21:34.605Z,6.85
2023-06-21T18:24:13.433Z,6.50
2023-06-21T18:26:40.379Z,6.50
2023-06-21T18:29:07.267Z,4.38
2023-06-21T18:31:34.187Z,5.90
2023-06-21T18:34:01.415Z,7.57
2023-06-21T18:36:28.471Z,9.00
2023-06-21T18:38:56.220Z,5.87
2023-06-21T18:41:23.328Z,8.87
2023-06-21T18:43:50.935Z,8.57
2023-06-21T18:46:17.965Z,6.40
2023-06-21T18:48:50.045Z,4.93
2023-06-21T18:51:17.100Z,6.20
2023-06-21T18:53:44.021Z,7.63
2023-06-21T18:56:10.991Z,6.43
2023-06-21T18:58:38.561Z,5.50
2023-06-21T19:01:05.557Z,6.90
2023-06-21T19:03:32.584Z,6.70
2023-06-21T19:05:59.617Z,5.43
2023-06-21T19:08:26.567Z,7.13
2023-06-21T19:10:53.489Z,4.60
2023-06-21T19:13:20.529Z,6.90
2023-06-21T19:15:47.384Z,6.30
2023-06-21T19:18:14.449Z,6.80
2023-06-21T19:20:41.356Z,5.63
2023-06-21T19:23:08.237Z,5.67
2023-06-21T19:25:35.189Z,5.60
2023-06-21T19:28:02.080Z,6.63
2023-06-21T19:30:29.271Z,5.50
2023-06-21T19:32:56.562Z,6.67
2023-06-21T19:35:23.519Z,7.47
2023-06-21T19:37:50.437Z,5.53
2023-06-21T19:40:17.457Z,6.03
2023-06-21T19:42:47.526Z,5.83
2023-06-21T19:45:15.084Z,6.67
2023-06-21T19:47:42.549Z,9.10
2023-06-21T19:50:10.488Z,5.10
2023-06-21T19:52:37.528Z,8.03
2023-06-21T19:55:04.985Z,5.40
2023-06-21T19:57:32.327Z,6.40
2023-06-21T19:59:59.646Z,5.80
2023-06-21T20:02:26.744Z,5.87
2023-06-21T20:04:57.298Z,6.27
2023-06-21T20:07:24.907Z,4.93
2023-06-21T20:09:53.300Z,6.37
2023-06-21T20:12:20.194Z,6.23
2023-06-21T20:14:47.201Z,5.67
2023-06-21T20:17:14.126Z,6.60
2023-06-21T20:19:41.097Z,5.67
2023-06-21T20:22:08.001Z,4.90
2023-06-21T20:24:34.940Z,6.57
2023-06-21T20:27:01.914Z,5.97
2023-06-21T20:29:28.798Z,5.23
2023-06-21T20:31:55.703Z,6.13
2023-06-21T20:34:23.366Z,5.27
2023-06-21T20:36:50.321Z,8.90
2023-06-21T20:39:18.676Z,6.07
2023-06-21T20:41:47.047Z,6.27
2023-06-21T20:44:16.337Z,8.60
2023-06-21T20:46:45.918Z,6.97
2023-06-21T20:49:13.242Z,6.50
2023-06-21T20:51:40.660Z,7.50
2023-06-21T20:54:12.313Z,10.37
2023-06-21T20:56:40.525Z,7.30
2023-06-21T20:59:07.959Z,7.47
2023-06-21T21:01:39.528Z,4.30
2023-06-21T21:04:08.441Z,7.30
2023-06-21T21:06:36.596Z,7.03
2023-06-21T21:09:04.152Z,9.40
2023-06-21T21:11:31.196Z,5.53
2023-06-21T21:14:01.300Z,8.43
2023-06-21T21:16:28.387Z,5.63
2023-06-21T21:18:55.415Z,9.37
2023-06-21T21:21:22.789Z,7.53
2023-06-21T21:23:51.540Z,6.70
2023-06-21T21:26:18.575Z,8.97
2023-06-21T21:28:45.447Z,10.10
2023-06-21T21:31:12.417Z,5.40
2023-06-21T21:33:39.271Z,8.20
2023-06-21T21:36:06.806Z,8.23
2023-06-21T21:38:33.761Z,6.60
2023-06-21T21:41:00.685Z,8.43
2023-06-21T21:43:27.564Z,8.40
2023-06-21T21:45:54.460Z,7.03
2023-06-21T21:48:21.403Z,7.13
2023-06-21T21:50:48.366Z,7.50
2023-06-21T21:53:15.616Z,6.57
2023-06-21T21:55:43.291Z,7.47
2023-06-21T21:58:11.775Z,7.47
2023-06-21T22:00:38.653Z,8.37
2023-06-21T22:03:05.652Z,9.97
2023-06-21T22:05:32.734Z,7.73
2023-06-21T22:07:59.640Z,6.90
2023-06-21T22:10:37.684Z,7.20
2023-06-21T22:13:05.869Z,9.23
2023-06-21T22:15:32.808Z,8.50
2023-06-21T22:18:01.229Z,7.23
2023-06-21T22:20:30.560Z,9.40
2023-06-21T22:22:57.871Z,6.50
2023-06-21T22:25:24.783Z,8.07
2023-06-21T22:27:51.664Z,7.07
2023-06-21T22:30:18.883Z,7.97
2023-06-21T22:32:45.915Z,7.50
2023-06-21T22:35:12.823Z,6.27
2023-06-21T22:37:39.954Z,7.67
2023-06-21T22:40:08.263Z,6.43
2023-06-21T22:42:35.474Z,9.33
2023-06-21T22:45:02.474Z,7.13
2023-06-21T22:47:29.408Z,8.70
2023-06-21T22:49:56.898Z,6.90
2023-06-21T22:52:24.764Z,8.10
2023-06-21T22:54:51.876Z,7.63
2023-06-21T22:57:18.923Z,7.13
2023-06-21T22:59:46.000Z,7.63
2023-06-21T23:02:13.005Z,7.87
2023-06-21T23:04:40.320Z,9.13
2023-06-21T23:07:07.622Z,6.97
2023-06-21T23:09:34.553Z,8.07
2023-06-21T23:12:01.407Z,9.03
2023-06-21T23:14:29.106Z,8.97
2023-06-21T23:16:56.764Z,7.67
2023-06-21T23:19:24.096Z,6.73
2023-06-21T23:21:52.131Z,9.10
2023-06-21T23:24:19.049Z,6.27
2023-06-21T23:26:49.676Z,6.17
2023-06-21T23:29:16.823Z,6.90
2023-06-21T23:31:43.888Z,8.10
2023-06-21T23:34:12.503Z,10.30
2023-06-21T23:36:41.775Z,9.80
2023-06-21T23:39:09.772Z,8.80
2023-06-21T23:41:37.812Z,8.63
2023-06-21T23:44:06.247Z,7.97
2023-06-21T23:46:34.052Z,8.30
2023-06-21T23:49:03.297Z,9.10
2023-06-21T23:51:34.434Z,12.97
2023-06-21T23:54:01.331Z,8.63
2023-06-21T23:56:28.801Z,6.63
2023-06-21T23:58:55.930Z,8.30
